Time;durP1;ratioP1;P1;durP2;ratioP2;P2;SDS_P1;SDS_P2;PMS_P1;PMS_P2;Temp;Humidity;BMP_temperature;BMP_pressure;BME280_temperature;BME280_humidity;BME280_pressure;Samples;Min_cycle;Max_cycle;Signal;HPM_P1;HPM_P2
2022/04/20 00:01:17;;;;;;;;;;;;;;;19.54;41.25;100538.19;5073175;28;19922;-76
2022/04/20 00:03:44;;;;;;;;;;;;;;;19.54;41.30;100548.91;5071517;28;19921;-75
2022/04/20 00:06:11;;;;;;;;;;;;;;;19.53;41.33;100552.59;5073282;28;19920;-75
2022/04/20 00:08:38;;;;;;;;;;;;;;;19.54;41.33;100554.28;5073129;28;19925;-75
2022/04/20 00:11:07;;;;;;;;;;;;;;;19.54;41.34;100556.13;5073101;28;19920;-75
2022/04/20 00:13:35;;;;;;;;;;;;;;;19.53;41.32;100557.97;5073381;28;19927;-76
2022/04/20 00:16:02;;;;;;;;;;;;;;;19.52;41.29;100549.03;5074574;28;19927;-76
2022/04/20 00:18:29;;;;;;;;;;;;;;;19.51;41.42;100544.66;5074357;28;19943;-75
2022/04/20 00:20:57;;;;;;;;;;;;;;;19.54;41.30;100556.97;5074827;28;19928;-76
2022/04/20 00:23:24;;;;;;;;;;;;;;;19.54;41.34;100569.56;5075304;28;19920;-76
2022/04/20 00:25:51;;;;;;;;;;;;;;;19.54;41.42;100569.56;5071750;28;20383;-75
2022/04/20 00:28:18;;;;;;;;;;;;;;;19.52;41.45;100575.03;5074107;28;19921;-75
2022/04/20 00:30:45;;;;;;;;;;;;;;;19.52;41.44;100567.00;5073420;28;19928;-76
2022/04/20 00:33:12;;;;;;;;;;;;;;;19.52;41.32;100572.34;5075016;28;19935;-76
2022/04/20 00:35:41;;;;;;;;;;;;;;;19.51;41.22;100571.50;5075173;28;19931;-76
2022/04/20 00:38:09;;;;;;;;;;;;;;;19.52;41.43;100575.03;5077525;28;19932;-76
2022/04/20 00:40:36;;;;;;;;;;;;;;;19.51;41.33;100576.88;5076407;28;19920;-76
2022/04/20 00:43:03;;;;;;;;;;;;;;;19.50;41.46;100577.88;5077008;28;19927;-76
2022/04/20 00:45:32;;;;;;;;;;;;;;;19.51;41.31;100584.09;5075430;28;20291;-76
2022/04/20 00:48:00;;;;;;;;;;;;;;;19.51;41.49;100589.47;5076770;28;19924;-76
2022/04/20 00:50:29;;;;;;;;;;;;;;;19.51;41.41;100582.25;5074814;28;20288;-76
2022/04/20 00:52:56;;;;;;;;;;;;;;;19.51;41.42;100592.16;5077190;28;19927;-76
2022/04/20 00:55:29;;;;;;;;;;;;;;;19.50;41.57;100588.63;5075151;28;19920;-76
2022/04/20 00:57:57;;;;;;;;;;;;;;;19.50;41.53;100587.78;5074906;28;19943;-76
2022/04/20 01:00:27;;;;;;;;;;;;;;;19.51;41.43;100597.53;5074410;28;20288;-76
2022/04/20 01:02:54;;;;;;;;;;;;;;;19.50;41.67;100590.47;5074797;28;19921;-76
2022/04/20 01:05:22;;;;;;;;;;;;;;;19.50;41.56;100601.19;5074818;28;19943;-75
2022/04/20 01:08:18;;;;;;;;;;;;;;;19.50;41.58;100598.50;5069017;28;19927;-75
2022/04/20 01:11:02;;;;;;;;;;;;;;;19.50;41.64;100603.88;5074767;28;20379;-76
2022/04/20 01:13:45;;;;;;;;;;;;;;;19.49;41.78;100605.72;5074603;28;20277;-76
2022/04/20 01:16:22;;;;;;;;;;;;;;;19.49;41.70;100603.03;5076167;28;19928;-75
2022/04/20 01:19:13;;;;;;;;;;;;;;;19.49;41.74;100605.72;5071123;28;19920;-76
2022/04/20 01:22:29;;;;;;;;;;;;;;;19.49;41.62;100615.63;5074708;28;19921;-76
2022/04/20 01:25:14;;;;;;;;;;;;;;;19.49;41.73;100619.16;5083756;28;19921;-76
2022/04/20 01:28:20;;;;;;;;;;;;;;;19.49;41.75;100616.47;5063313;28;20356;-76
2022/04/20 01:30:55;;;;;;;;;;;;;;;19.49;41.59;100621.00;5074301;28;20268;-76
2022/04/20 01:33:31;;;;;;;;;;;;;;;19.48;41.68;100621.94;5074890;28;19920;-75
2022/04/20 01:35:58;;;;;;;;;;;;;;;19.48;41.69;100628.16;5073936;28;20372;-76
2022/04/20 01:38:26;;;;;;;;;;;;;;;19.50;41.77;100638.78;5074476;28;19920;-76
2022/04/20 01:40:53;;;;;;;;;;;;;;;19.49;41.95;100637.09;5073987;28;19927;-76
2022/04/20 01:43:21;;;;;;;;;;;;;;;19.48;41.83;100644.28;5073513;28;19924;-76
2022/04/20 01:46:08;;;;;;;;;;;;;;;19.49;41.95;100647.84;5075432;28;19920;-76
2022/04/20 01:48:48;;;;;;;;;;;;;;;19.47;41.92;100647.94;5074019;28;19920;-76
2022/04/20 01:51:46;;;;;;;;;;;;;;;19.47;41.95;100650.63;5082244;28;19921;-75
2022/04/20 01:54:43;;;;;;;;;;;;;;;19.47;41.96;100655.16;5053703;28;19920;-75
2022/04/20 01:57:45;;;;;;;;;;;;;;;19.47;41.88;100657.84;4994140;28;19981;-75
2022/04/20 02:00:35;;;;;;;;;;;;;;;19.47;42.01;100655.16;4977696;28;19921;-75
2022/04/20 02:03:25;;;;;;;;;;;;;;;19.46;42.00;100658.84;4993438;28;20393;-75
2022/04/20 02:06:08;;;;;;;;;;;;;;;19.47;41.79;100664.06;4993881;28;19929;-75
2022/04/20 02:08:44;;;;;;;;;;;;;;;19.47;41.95;100665.91;4977506;28;19921;-76
2022/04/20 02:11:16;;;;;;;;;;;;;;;19.46;42.07;100662.38;4993833;28;20023;-76
2022/04/20 02:13:43;;;;;;;;;;;;;;;19.46;41.98;100665.06;4993769;28;19934;-76
2022/04/20 02:16:13;;;;;;;;;;;;;;;19.46;42.11;100661.53;4976684;28;20023;-75
2022/04/20 02:18:58;;;;;;;;;;;;;;;19.47;41.96;100669.44;4995367;28;20353;-76
2022/04/20 02:21:36;;;;;;;;;;;;;;;19.46;42.10;100664.22;4994113;28;19921;-76
2022/04/20 02:24:04;;;;;;;;;;;;;;;19.45;42.07;100666.06;4993542;28;20329;-75
2022/04/20 02:26:31;;;;;;;;;;;;;;;19.46;42.09;100658.84;4993582;28;20427;-76
2022/04/20 02:28:58;;;;;;;;;;;;;;;19.45;42.34;100671.41;4993683;28;19921;-75
2022/04/20 02:31:25;;;;;;;;;;;;;;;19.47;42.28;100671.28;5011568;28;19920;-76
2022/04/20 02:33:52;;;;;;;;;;;;;;;19.46;42.34;100669.59;5073380;28;19931;-76
2022/04/20 02:36:20;;;;;;;;;;;;;;;19.45;42.35;100676.78;5074826;28;19921;-76
2022/04/20 02:38:47;;;;;;;;;;;;;;;19.44;42.38;100672.38;5073329;28;19931;-76
2022/04/20 02:41:15;;;;;;;;;;;;;;;19.45;42.40;100673.25;5074951;28;19921;-76
2022/04/20 02:43:43;;;;;;;;;;;;;;;19.45;42.37;100667.88;5074654;28;19920;-76
2022/04/20 02:46:10;;;;;;;;;;;;;;;19.45;42.43;100676.78;5073972;28;19920;-76
2022/04/20 02:48:37;;;;;;;;;;;;;;;19.45;42.51;100667.88;5073999;28;20347;-76
2022/04/20 02:51:04;;;;;;;;;;;;;;;19.45;42.52;100668.72;5072698;28;19920;-75
2022/04/20 02:53:31;;;;;;;;;;;;;;;19.45;42.60;100676.78;5073586;28;19924;-76
2022/04/20 02:56:00;;;;;;;;;;;;;;;19.45;42.65;100674.09;5072446;28;19927;-76
2022/04/20 02:58:27;;;;;;;;;;;;;;;19.45;42.54;100678.63;5072589;28;19920;-76
2022/04/20 03:00:57;;;;;;;;;;;;;;;19.46;42.76;100680.31;5071965;28;19921;-76
2022/04/20 03:03:33;;;;;;;;;;;;;;;19.45;42.79;100674.09;5072520;28;19920;-76
2022/04/20 03:06:20;;;;;;;;;;;;;;;19.45;42.86;100678.63;5032083;28;19928;-76
2022/04/20 03:08:48;;;;;;;;;;;;;;;19.46;42.76;100680.31;5015399;28;19928;-76
2022/04/20 03:11:19;;;;;;;;;;;;;;;19.45;42.87;100684.84;5015141;28;19921;-76
2022/04/20 03:13:48;;;;;;;;;;;;;;;19.45;42.90;100671.41;5015295;28;19921;-76
2022/04/20 03:16:17;;;;;;;;;;;;;;;19.45;42.81;100668.72;5014744;28;20024;-74
2022/04/20 03:18:46;;;;;;;;;;;;;;;19.45;42.80;100673.25;5015381;28;19932;-73
2022/04/20 03:21:22;;;;;;;;;;;;;;;19.46;42.81;100677.63;5015374;28;19924;-73
2022/04/20 03:23:53;;;;;;;;;;;;;;;19.45;43.02;100684.00;5015449;28;19921;-73
2022/04/20 03:26:39;;;;;;;;;;;;;;;19.45;42.82;100678.63;5038420;28;20436;-73
2022/04/20 03:29:18;;;;;;;;;;;;;;;19.45;43.05;100684.00;5015278;28;19921;-75
2022/04/20 03:31:45;;;;;;;;;;;;;;;19.44;43.10;100671.53;5015056;28;19932;-75
2022/04/20 03:34:13;;;;;;;;;;;;;;;19.44;43.09;100683.13;5014828;28;19921;-75
2022/04/20 03:36:40;;;;;;;;;;;;;;;19.44;43.11;100679.59;5014549;28;20427;-75
2022/04/20 03:39:07;;;;;;;;;;;;;;;19.45;43.05;100678.63;5015865;28;19921;-75
2022/04/20 03:41:35;;;;;;;;;;;;;;;19.44;43.10;100677.75;5031837;28;19921;-75
2022/04/20 03:44:04;;;;;;;;;;;;;;;19.44;43.23;100683.13;5060353;28;19928;-75
2022/04/20 03:46:31;;;;;;;;;;;;;;;19.45;43.26;100684.00;5071987;28;20371;-75
2022/04/20 03:48:58;;;;;;;;;;;;;;;19.44;43.28;100680.44;5071594;28;19927;-75
2022/04/20 03:51:25;;;;;;;;;;;;;;;19.44;43.23;100683.13;5071613;28;19920;-75
2022/04/20 03:53:54;;;;;;;;;;;;;;;19.44;43.40;100687.66;5071935;28;19927;-75
2022/04/20 03:56:21;;;;;;;;;;;;;;;19.44;43.23;100690.31;5071935;28;20319;-75
2022/04/20 03:58:49;;;;;;;;;;;;;;;19.44;43.30;100696.53;5072440;28;19943;-75
2022/04/20 04:01:16;;;;;;;;;;;;;;;19.44;43.39;100687.66;5071573;28;19920;-75
2022/04/20 04:03:44;;;;;;;;;;;;;;;19.44;43.30;100695.69;5071606;28;19927;-75
2022/04/20 04:06:17;;;;;;;;;;;;;;;19.43;43.46;100688.63;5074314;28;19920;-76
2022/04/20 04:08:44;;;;;;;;;;;;;;;19.43;43.35;100702.06;5075999;28;19927;-76
2022/04/20 04:11:12;;;;;;;;;;;;;;;19.43;43.41;100705.59;5075445;28;20314;-76
2022/04/20 04:13:40;;;;;;;;;;;;;;;19.43;43.35;100710.97;5075708;28;19920;-76
2022/04/20 04:16:07;;;;;;;;;;;;;;;19.44;43.71;100709.13;5075681;28;20291;-76
2022/04/20 04:18:34;;;;;;;;;;;;;;;19.43;43.68;100710.97;5059108;28;19920;-76
2022/04/20 04:21:06;;;;;;;;;;;;;;;19.44;43.50;100715.34;5075773;28;20308;-76
2022/04/20 04:23:33;;;;;;;;;;;;;;;19.44;43.74;100714.50;5075113;28;19928;-76
2022/04/20 04:26:10;;;;;;;;;;;;;;;19.44;43.66;100714.50;5075710;28;19927;-76
2022/04/20 04:28:42;;;;;;;;;;;;;;;19.44;43.87;100712.66;5075598;28;19924;-76
2022/04/20 04:31:11;;;;;;;;;;;;;;;19.43;43.76;100720.84;5075304;28;19921;-75
2022/04/20 04:33:39;;;;;;;;;;;;;;;19.44;43.71;100719.84;5076830;28;20383;-76
2022/04/20 04:36:07;;;;;;;;;;;;;;;19.44;43.94;100733.28;5075167;28;19920;-75
2022/04/20 04:38:41;;;;;;;;;;;;;;;19.43;43.80;100724.38;5075220;28;19943;-76
2022/04/20 04:41:11;;;;;;;;;;;;;;;19.43;43.93;100735.13;5075323;28;19920;-76
2022/04/20 04:43:39;;;;;;;;;;;;;;;19.44;43.95;100733.28;5075546;28;19920;-76
2022/04/20 04:49:15;;;;;;;;;;;;;;;19.44;43.93;100733.28;5074172;28;19921;-75
2022/04/20 04:51:43;;;;;;;;;;;;;;;19.43;43.93;100731.59;5075675;28;19928;-75
2022/04/20 04:54:15;;;;;;;;;;;;;;;19.43;43.93;100731.59;5074981;28;19921;-76
2022/04/20 04:56:42;;;;;;;;;;;;;;;19.43;43.89;100736.97;5074769;28;20406;-76
2022/04/20 04:59:10;;;;;;;;;;;;;;;19.42;43.96;100746.00;5074481;28;19921;-76
2022/04/20 05:01:38;;;;;;;;;;;;;;;19.42;43.93;100748.69;5074559;28;20368;-76
2022/04/20 05:04:11;;;;;;;;;;;;;;;19.42;44.01;100746.84;5074335;28;20017;-76
2022/04/20 05:06:41;;;;;;;;;;;;;;;19.42;44.01;100756.75;5074722;28;19920;-76
2022/04/20 05:09:08;;;;;;;;;;;;;;;19.42;44.00;100756.75;5076225;28;19927;-76
2022/04/20 05:11:39;;;;;;;;;;;;;;;19.42;44.01;100752.22;5075533;28;19920;-76
2022/04/20 05:14:09;;;;;;;;;;;;;;;19.43;44.05;100761.13;5075416;28;19928;-76
2022/04/20 05:16:39;;;;;;;;;;;;;;;19.42;44.07;100759.44;5076758;28;19920;-76
2022/04/20 05:19:09;;;;;;;;;;;;;;;19.42;44.04;100765.66;5076382;28;19904;-76
2022/04/20 05:21:37;;;;;;;;;;;;;;;19.42;44.08;100762.13;5074720;28;19928;-76
2022/04/20 05:24:05;;;;;;;;;;;;;;;19.42;44.10;100759.44;5074453;28;19920;-76
2022/04/20 05:26:35;;;;;;;;;;;;;;;19.42;44.03;100762.13;5074011;28;19920;-76
2022/04/20 05:29:03;;;;;;;;;;;;;;;19.43;44.06;100758.44;5074297;28;19932;-76
2022/04/20 05:31:38;;;;;;;;;;;;;;;19.42;44.24;100764.81;5074405;28;19927;-75
2022/04/20 05:34:09;;;;;;;;;;;;;;;19.42;44.11;100762.13;5073915;28;19927;-76
2022/04/20 05:42:10;;;;;;;;;;;;;;;19.41;44.11;100776.53;5074298;28;19920;-75
2022/04/20 05:44:39;;;;;;;;;;;;;;;19.41;44.32;100773.84;5073891;28;20267;-75
2022/04/20 05:47:06;;;;;;;;;;;;;;;19.42;44.20;100786.28;5073993;28;19920;-76
2022/04/20 05:49:34;;;;;;;;;;;;;;;19.41;44.28;100779.22;5074424;28;19927;-76
2022/04/20 05:52:02;;;;;;;;;;;;;;;19.41;44.03;100779.22;5073598;28;20276;-76
2022/04/20 05:54:29;;;;;;;;;;;;;;;19.41;44.23;100792.63;5073827;28;20283;-75
2022/04/20 05:56:56;;;;;;;;;;;;;;;19.41;44.25;100798.84;5073996;28;19920;-75
2022/04/20 05:59:24;;;;;;;;;;;;;;;19.41;44.35;100795.31;5073581;28;19921;-76
2022/04/20 06:01:55;;;;;;;;;;;;;;;19.41;44.33;100795.31;5073685;28;19920;-75
2022/04/20 06:04:24;;;;;;;;;;;;;;;19.41;44.10;100800.69;5073593;28;19943;-75
2022/04/20 06:07:03;;;;;;;;;;;;;;;19.40;44.09;100804.34;5081559;28;19924;-75
2022/04/20 06:09:44;;;;;;;;;;;;;;;19.40;44.13;100804.34;5073391;28;19928;-75
2022/04/20 06:12:40;;;;;;;;;;;;;;;19.40;44.25;100801.66;5070259;28;19920;-75
2022/04/20 06:15:30;;;;;;;;;;;;;;;19.40;44.36;100802.50;5073387;28;20390;-76
2022/04/20 06:18:23;;;;;;;;;;;;;;;19.41;44.18;100795.31;5073069;28;19924;-75
2022/04/20 06:21:08;;;;;;;;;;;;;;;19.40;44.36;100798.97;5082311;28;19921;-76
2022/04/20 06:23:44;;;;;;;;;;;;;;;19.40;44.40;100807.03;5073691;28;20287;-75
2022/04/20 06:26:37;;;;;;;;;;;;;;;19.41;44.49;100806.91;5033140;28;19928;-75
2022/04/20 06:29:22;;;;;;;;;;;;;;;19.40;44.53;100804.34;5039648;28;20020;-75
2022/04/20 06:32:19;;;;;;;;;;;;;;;19.40;44.30;100815.06;4974135;28;19922;-76
2022/04/20 06:35:07;;;;;;;;;;;;;;;19.40;44.29;100809.72;4973885;28;20310;-75
2022/04/20 06:37:51;;;;;;;;;;;;;;;19.40;44.46;100817.75;4974141;28;19922;-74
2022/04/20 06:40:36;;;;;;;;;;;;;;;19.39;44.45;100810.69;4958024;28;19965;-73
2022/04/20 06:43:33;;;;;;;;;;;;;;;19.39;44.46;100814.22;4971088;28;19929;-73
2022/04/20 06:46:27;;;;;;;;;;;;;;;19.39;44.61;100816.06;4955135;28;19930;-73
2022/04/20 06:49:19;;;;;;;;;;;;;;;19.39;44.71;100803.50;4959322;28;19922;-73
2022/04/20 07:00:27;;;;;;;;;;;;;;;19.40;45.01;100809.72;4956293;28;19929;-75
2022/04/20 07:03:10;;;;;;;;;;;;;;;19.40;44.95;100802.50;4988551;28;19937;-75
2022/04/20 07:05:59;;;;;;;;;;;;;;;19.41;45.28;100804.22;4993841;28;19929;-75
2022/04/20 07:08:26;;;;;;;;;;;;;;;19.42;45.03;100805.91;4983650;28;19921;-77
2022/04/20 07:11:04;;;;;;;;;;;;;;;19.44;45.37;100805.78;5012922;28;19932;-78
2022/04/20 07:13:32;;;;;;;;;;;;;;;19.43;45.48;100804.94;4996264;28;19929;-76
2022/04/20 07:16:00;;;;;;;;;;;;;;;19.45;45.43;100807.50;4995521;28;19928;-77
2022/04/20 07:18:31;;;;;;;;;;;;;;;19.46;45.54;100795.75;4996571;28;19944;-80
2022/04/20 07:20:59;;;;;;;;;;;;;;;19.47;45.29;100794.78;5012924;28;20317;-81
2022/04/20 07:23:45;;;;;;;;;;;;;;;19.48;45.76;100794.63;5043844;28;19992;-79
2022/04/20 07:26:31;;;;;;;;;;;;;;;19.50;45.31;100790.00;5095947;28;19920;-81
2022/04/20 07:29:22;;;;;;;;;;;;;;;19.51;45.24;100798.91;5092443;28;19920;-81
2022/04/20 07:32:18;;;;;;;;;;;;;;;19.51;45.21;100801.56;5092335;28;19920;-81
2022/04/20 07:35:00;;;;;;;;;;;;;;;19.51;44.99;100798.91;5077587;28;20294;-79
2022/04/20 07:37:48;;;;;;;;;;;;;;;19.51;44.97;100796.22;5031299;28;20380;-77
2022/04/20 07:40:34;;;;;;;;;;;;;;;19.51;45.29;100804.25;5031213;28;19921;-77
2022/04/20 07:43:23;;;;;;;;;;;;;;;19.51;45.27;100809.63;5030685;28;19928;-77
2022/04/20 07:46:07;;;;;;;;;;;;;;;19.51;45.04;100798.91;5023936;28;19920;-76
2022/04/20 07:48:50;;;;;;;;;;;;;;;19.51;45.11;100806.94;5051669;28;20028;-78
2022/04/20 07:51:39;;;;;;;;;;;;;;;19.51;45.14;100813.16;5052335;28;19921;-78
2022/04/20 07:54:25;;;;;;;;;;;;;;;19.50;45.14;100803.41;5058718;28;20368;-78
2022/04/20 07:57:01;;;;;;;;;;;;;;;19.50;45.18;100813.31;5051636;28;19931;-76
2022/04/20 07:59:51;;;;;;;;;;;;;;;19.51;45.20;100812.31;5051360;28;19921;-76
2022/04/20 08:02:24;;;;;;;;;;;;;;;19.51;45.23;100812.31;5034287;28;20427;-77
2022/04/20 08:05:21;;;;;;;;;;;;;;;19.52;45.30;100808.63;5034822;28;20016;-76
2022/04/20 08:07:51;;;;;;;;;;;;;;;19.52;45.29;100816.69;5014927;28;19921;-78
2022/04/20 08:10:18;;;;;;;;;;;;;;;19.53;45.36;100815.75;5035579;28;19928;-77
2022/04/20 08:12:45;;;;;;;;;;;;;;;19.52;45.41;100814.84;5034789;28;20020;-78
2022/04/20 08:15:20;;;;;;;;;;;;;;;19.54;45.64;100812.06;5056883;28;19944;-79
2022/04/20 08:17:50;;;;;;;;;;;;;;;19.55;45.67;100813.75;5071821;28;19927;-76
2022/04/20 08:20:40;;;;;;;;;;;;;;;19.55;45.39;100819.13;5045375;28;19920;-76
2022/04/20 08:23:08;;;;;;;;;;;;;;;19.54;45.52;100812.06;5071865;28;19920;-76
2022/04/20 08:25:35;;;;;;;;;;;;;;;19.56;45.40;100817.28;5073564;28;19977;-78
2022/04/20 08:28:02;;;;;;;;;;;;;;;19.55;45.58;100821.81;5074114;28;19921;-78
2022/04/20 08:30:29;;;;;;;;;;;;;;;19.56;45.73;100819.97;5073364;28;19928;-74
2022/04/20 08:32:56;;;;;;;;;;;;;;;19.56;45.75;100817.28;5072217;28;19921;-75
2022/04/20 08:35:24;;;;;;;;;;;;;;;19.55;45.68;100815.59;5074021;28;19920;-74
2022/04/20 08:37:51;;;;;;;;;;;;;;;19.54;45.61;100817.44;5073071;28;19921;-75
2022/04/20 08:40:18;;;;;;;;;;;;;;;19.54;45.70;100820.13;5074901;28;19920;-74
2022/04/20 08:42:46;;;;;;;;;;;;;;;19.54;45.58;100822.81;5075071;28;19924;-73
2022/04/20 08:45:13;;;;;;;;;;;;;;;19.55;45.74;100815.59;5074817;28;19920;-76
2022/04/20 08:47:42;;;;;;;;;;;;;;;19.54;45.73;100820.13;5074311;28;19927;-75
2022/04/20 08:50:10;;;;;;;;;;;;;;;19.55;45.66;100826.34;5074741;28;20304;-75
2022/04/20 08:52:37;;;;;;;;;;;;;;;19.55;45.54;100824.50;5075448;28;20360;-75
2022/04/20 08:55:07;;;;;;;;;;;;;;;19.56;45.51;100823.50;5077669;28;19921;-79
2022/04/20 08:57:35;;;;;;;;;;;;;;;19.57;45.51;100821.66;5078812;28;19920;-75
2022/04/20 09:00:04;;;;;;;;;;;;;;;19.58;45.50;100826.06;5078231;28;19920;-74
2022/04/20 09:02:31;;;;;;;;;;;;;;;19.59;45.68;100827.75;5077480;28;20237;-74
2022/04/20 09:04:59;;;;;;;;;;;;;;;19.60;45.77;100827.63;5077656;28;19921;-74
2022/04/20 09:07:26;;;;;;;;;;;;;;;19.61;45.60;100829.38;5076400;28;20390;-76
2022/04/20 09:09:54;;;;;;;;;;;;;;;19.60;45.55;100833.00;5076162;28;19920;-78
2022/04/20 09:12:25;;;;;;;;;;;;;;;19.62;45.70;100823.00;5076097;28;19920;-76
2022/04/20 09:14:53;;;;;;;;;;;;;;;19.63;45.53;100831.91;5074539;28;19920;-73
2022/04/20 09:17:21;;;;;;;;;;;;;;;19.63;45.50;100826.53;5076835;28;19943;-75
2022/04/20 09:19:51;;;;;;;;;;;;;;;19.64;45.38;100833.63;5075858;28;20395;-74
2022/04/20 09:22:19;;;;;;;;;;;;;;;19.63;45.54;100832.75;5075825;28;19921;-76
2022/04/20 09:25:04;;;;;;;;;;;;;;;19.64;45.40;100833.63;5075459;28;19924;-75
2022/04/20 09:27:33;;;;;;;;;;;;;;;19.64;45.31;100837.16;5074576;28;19943;-74
2022/04/20 09:30:00;;;;;;;;;;;;;;;19.64;45.40;100834.47;5095929;28;19931;-74
2022/04/20 09:32:31;;;;;;;;;;;;;;;19.64;45.52;100828.25;5095991;28;20291;-76
2022/04/20 09:34:59;;;;;;;;;;;;;;;19.64;45.49;100823.72;5094544;28;19920;-74
2022/04/20 09:37:26;;;;;;;;;;;;;;;19.65;45.45;100833.50;5095871;28;19931;-75
2022/04/20 09:39:58;;;;;;;;;;;;;;;19.65;45.36;100836.19;5094663;28;19924;-75
2022/04/20 09:42:25;;;;;;;;;;;;;;;19.66;45.38;100834.34;5096424;28;19920;-74
2022/04/20 09:44:53;;;;;;;;;;;;;;;19.65;45.33;100824.59;5096311;28;19920;-74
2022/04/20 09:50:07;;;;;;;;;;;;;;;19.66;45.39;100821.75;5086040;28;19927;-74
2022/04/20 09:52:39;;;;;;;;;;;;;;;19.65;45.52;100817.38;5080941;28;19919;-76
2022/04/20 09:55:07;;;;;;;;;;;;;;;19.66;45.36;100821.75;5096229;28;19923;-75
2022/04/20 09:57:36;;;;;;;;;;;;;;;19.66;45.47;100820.91;5095690;28;19927;-75
2022/04/20 10:00:03;;;;;;;;;;;;;;;19.67;45.47;100827.97;5096515;28;19943;-73
2022/04/20 10:02:53;;;;;;;;;;;;;;;19.67;45.47;100818.09;5095286;28;20347;-76
2022/04/20 10:05:22;;;;;;;;;;;;;;;19.68;45.51;100821.63;5096096;28;19920;-73
2022/04/20 10:07:51;;;;;;;;;;;;;;;19.67;45.25;100812.72;5097112;28;19920;-74
2022/04/20 10:10:19;;;;;;;;;;;;;;;19.67;45.41;100812.72;5096016;28;19927;-74
2022/04/20 10:12:51;;;;;;;;;;;;;;;19.68;45.39;100816.25;5097529;28;20407;-75
2022/04/20 10:18:05;;;;;;;;;;;;;;;19.69;45.25;100801.84;5095295;28;19920;-73
2022/04/20 10:20:34;;;;;;;;;;;;;;;19.69;45.26;100799.16;5094478;28;19927;-75
2022/04/20 10:23:02;;;;;;;;;;;;;;;19.70;45.42;100795.50;5096463;28;19920;-74
2022/04/20 10:25:31;;;;;;;;;;;;;;;19.70;45.31;100795.50;5096043;28;19927;-74
2022/04/20 10:28:17;;;;;;;;;;;;;;;19.70;45.41;100782.06;5094867;28;19971;-74
2022/04/20 10:30:48;;;;;;;;;;;;;;;19.73;45.37;100792.53;5095025;28;19927;-74
2022/04/20 10:33:19;;;;;;;;;;;;;;;19.72;45.22;100794.34;5093056;28;20298;-75
2022/04/20 10:36:02;;;;;;;;;;;;;;;19.73;45.27;100785.31;5093132;28;19920;-74
2022/04/20 10:38:35;;;;;;;;;;;;;;;19.73;45.26;100779.97;5093426;28;19920;-76
2022/04/20 10:41:22;;;;;;;;;;;;;;;19.74;45.16;100772.75;5094515;28;19927;-76
2022/04/20 10:44:03;;;;;;;;;;;;;;;19.74;45.28;100776.28;5089795;28;19930;-77
2022/04/20 10:46:30;;;;;;;;;;;;;;;19.77;45.38;100783.22;5094481;28;19927;-78
2022/04/20 10:48:58;;;;;;;;;;;;;;;19.76;45.05;100789.56;5094623;28;19924;-76
2022/04/20 10:51:36;;;;;;;;;;;;;;;19.78;45.12;100781.38;5094780;28;19920;-77
2022/04/20 10:54:26;;;;;;;;;;;;;;;19.79;45.14;100783.06;5094069;28;20359;-76
2022/04/20 10:57:01;;;;;;;;;;;;;;;19.79;45.24;100781.22;5092942;28;19927;-76
2022/04/20 10:59:28;;;;;;;;;;;;;;;19.80;45.31;100782.09;5094467;28;19920;-76
2022/04/20 11:01:58;;;;;;;;;;;;;;;19.78;45.53;100779.53;5094185;28;19920;-76
2022/04/20 11:04:50;;;;;;;;;;;;;;;19.79;45.53;100778.56;5094389;28;20290;-74
2022/04/20 11:07:17;;;;;;;;;;;;;;;19.79;45.42;100786.59;5093599;28;19924;-75
2022/04/20 11:09:45;;;;;;;;;;;;;;;19.80;46.46;100779.41;5094210;28;19927;-78
2022/04/20 11:21:05;;;;;;;;;;;;;;;19.78;51.19;100778.69;5092749;28;19943;-75
2022/04/20 11:23:51;;;;;;;;;;;;;;;19.74;50.57;100781.66;5093703;28;20287;-74
2022/04/20 11:26:24;;;;;;;;;;;;;;;19.67;48.74;100769.75;5093811;28;19927;-75
2022/04/20 11:28:52;;;;;;;;;;;;;;;19.62;49.45;100771.16;5092960;28;20279;-74
2022/04/20 11:31:19;;;;;;;;;;;;;;;19.59;49.24;100774.06;5093561;28;19927;-74
2022/04/20 11:33:47;;;;;;;;;;;;;;;19.56;50.08;100782.38;5093449;28;19924;-75
2022/04/20 11:36:21;;;;;;;;;;;;;;;19.53;50.83;100778.16;5091943;28;19919;-75
2022/04/20 11:38:50;;;;;;;;;;;;;;;19.51;50.70;100775.56;5092913;28;19920;-75
2022/04/20 11:41:19;;;;;;;;;;;;;;;19.51;50.82;100774.72;5093427;28;19927;-74
2022/04/20 11:43:49;;;;;;;;;;;;;;;19.47;49.24;100773.28;5093248;28;19920;-80
2022/04/20 11:46:17;;;;;;;;;;;;;;;19.44;48.91;100760.13;5093145;28;19927;-74
2022/04/20 11:48:49;;;;;;;;;;;;;;;19.41;48.40;100761.28;5092708;28;19958;-74
2022/04/20 11:51:25;;;;;;;;;;;;;;;19.39;50.12;100759.69;5093458;28;20074;-74
2022/04/20 11:53:52;;;;;;;;;;;;;;;19.42;49.58;100767.50;5093247;28;19927;-73
2022/04/20 11:56:39;;;;;;;;;;;;;;;19.43;48.90;100761.13;5091612;28;20016;-75
2022/04/20 11:59:08;;;;;;;;;;;;;;;19.45;52.85;100772.59;5093556;28;19935;-74
2022/04/20 12:01:36;;;;;;;;;;;;;;;19.45;51.09;100777.97;5093013;28;20374;-74
2022/04/20 12:04:30;;;;;;;;;;;;;;;19.45;49.51;100770.75;5093086;28;20257;-75
2022/04/20 12:06:58;;;;;;;;;;;;;;;19.46;48.98;100774.28;5088341;28;20405;-75
2022/04/20 12:09:26;;;;;;;;;;;;;;;19.46;48.74;100772.44;5093432;28;19920;-76
2022/04/20 12:11:55;;;;;;;;;;;;;;;19.47;51.71;100774.13;5092161;28;19934;-75
2022/04/20 12:14:26;;;;;;;;;;;;;;;19.47;53.31;100776.81;5093781;28;19942;-75
2022/04/20 12:16:57;;;;;;;;;;;;;;;19.48;51.77;100769.63;5090085;28;20016;-73
2022/04/20 12:19:32;;;;;;;;;;;;;;;19.47;53.45;100768.78;5091095;28;19920;-75
2022/04/20 12:22:06;;;;;;;;;;;;;;;19.48;54.00;100765.09;5092542;28;19920;-75
2022/04/20 12:24:33;;;;;;;;;;;;;;;19.48;54.21;100748.97;5093228;28;19965;-76
2022/04/20 12:27:00;;;;;;;;;;;;;;;19.47;51.11;100746.44;5093898;28;19927;-75
2022/04/20 12:29:32;;;;;;;;;;;;;;;19.40;48.76;100746.13;5097155;28;19931;-76
2022/04/20 12:32:00;;;;;;;;;;;;;;;19.43;52.07;100747.69;5094982;28;19920;-75
2022/04/20 12:34:30;;;;;;;;;;;;;;;19.44;53.84;100749.41;5097075;28;19924;-76
2022/04/20 12:37:13;;;;;;;;;;;;;;;19.45;54.70;100745.75;5095299;28;20398;-77
2022/04/20 12:39:45;;;;;;;;;;;;;;;19.44;50.63;100734.13;5095867;28;19920;-75
2022/04/20 12:42:19;;;;;;;;;;;;;;;19.40;49.37;100729.16;5096461;28;19920;-76
2022/04/20 12:44:58;;;;;;;;;;;;;;;19.44;53.62;100730.59;5095007;28;19919;-76
2022/04/20 12:47:26;;;;;;;;;;;;;;;19.45;54.64;100727.81;5097109;28;19927;-77
2022/04/20 12:49:53;;;;;;;;;;;;;;;19.46;55.25;100720.59;5097122;28;19920;-75
2022/04/20 12:52:22;;;;;;;;;;;;;;;19.47;55.51;100730.34;5097211;28;19920;-74
2022/04/20 12:54:52;;;;;;;;;;;;;;;19.48;56.16;100727.50;5095708;28;19929;-74
2022/04/20 13:03:12;;;;;;;;;;;;;;;19.52;56.97;100728.09;5096298;28;19931;-75
2022/04/20 13:05:40;;;;;;;;;;;;;;;19.52;56.80;100733.47;5095410;28;19920;-74
2022/04/20 13:08:08;;;;;;;;;;;;;;;19.54;57.00;100733.34;5096222;28;20244;-73
2022/04/20 13:10:37;;;;;;;;;;;;;;;19.55;57.63;100737.72;5094914;28;19920;-73
2022/04/20 13:13:04;;;;;;;;;;;;;;;19.55;57.77;100743.09;5096264;28;19919;-73
2022/04/20 13:15:46;;;;;;;;;;;;;;;19.55;57.80;100738.56;5078906;28;19974;-72
2022/04/20 13:18:13;;;;;;;;;;;;;;;19.55;57.73;100733.19;5096437;28;19919;-74
2022/04/20 13:20:40;;;;;;;;;;;;;;;19.56;57.82;100729.50;5096204;28;19920;-72
2022/04/20 13:23:07;;;;;;;;;;;;;;;19.56;57.74;100724.16;5096144;28;19931;-75
2022/04/20 13:28:20;;;;;;;;;;;;;;;19.56;56.96;100729.50;5095808;28;20252;-74
2022/04/20 13:30:47;;;;;;;;;;;;;;;19.58;58.10;100732.09;5094720;28;19924;-73
2022/04/20 13:33:15;;;;;;;;;;;;;;;19.59;57.90;100728.41;5096449;28;19920;-75
2022/04/20 13:35:44;;;;;;;;;;;;;;;19.58;56.91;100726.72;5094971;28;19923;-75
2022/04/20 13:38:11;;;;;;;;;;;;;;;19.59;57.15;100717.66;5093011;28;20398;-74
2022/04/20 13:40:39;;;;;;;;;;;;;;;19.60;58.16;100725.56;5095426;28;19924;-73
2022/04/20 13:43:06;;;;;;;;;;;;;;;19.61;58.72;100718.41;5096279;28;20264;-74
2022/04/20 13:45:34;;;;;;;;;;;;;;;19.60;58.24;100711.31;5095758;28;19920;-76